8CS YBSU-YBCG
Flight info
| Callsign | 8CS |
|---|---|
| Flight time | 1h 17m |
| Altitude | 4500 |
| Route | MFH YTGA RUIS PRP Q1 |
| Aircraft | C172/L-VGDW/C |
Departure
| Time | 2026-05-09 07:16 |
|---|---|
| Airport | Sunshine Coast Airport (YBSU) |
Arrival
| Time | 2026-05-09 08:34 |
|---|---|
| Airport | Gold Coast Airport (YBCG) |
| Time | Latitude | Longitude | Altitude | Speed | Heading |
|---|---|---|---|---|---|
| 2026-05-09 07:05 | -26.60843 | 153.08870 | 19 ft | 0 kts | 104° |
| 2026-05-09 07:08 | -26.60857 | 153.08873 | 19 ft | 4 kts | 176° |
| 2026-05-09 07:08 | -26.60874 | 153.08876 | 19 ft | 0 kts | 163° |
| 2026-05-09 07:09 | -26.60895 | 153.08906 | 19 ft | 2 kts | 76° |
| 2026-05-09 07:09 | -26.60859 | 153.08925 | 19 ft | 9 kts | 6° |
| 2026-05-09 07:09 | -26.60794 | 153.08940 | 19 ft | 10 kts | 13° |
| 2026-05-09 07:10 | -26.60744 | 153.08981 | 19 ft | 11 kts | 107° |
| 2026-05-09 07:10 | -26.60743 | 153.09009 | 19 ft | 0 kts | 52° |
| 2026-05-09 07:11 | -26.60711 | 153.09022 | 19 ft | 11 kts | 5° |
| 2026-05-09 07:12 | -26.60602 | 153.09053 | 19 ft | 19 kts | 14° |
| 2026-05-09 07:12 | -26.60465 | 153.09059 | 19 ft | 22 kts | 320° |
| 2026-05-09 07:12 | -26.60339 | 153.08944 | 19 ft | 25 kts | 323° |
| 2026-05-09 07:12 | -26.60194 | 153.08823 | 19 ft | 25 kts | 326° |
| 2026-05-09 07:13 | -26.60130 | 153.08827 | 19 ft | 7 kts | 304° |
| 2026-05-09 07:13 | -26.60124 | 153.08769 | 19 ft | 12 kts | 302° |
| 2026-05-09 07:13 | -26.60024 | 153.08682 | 19 ft | 25 kts | 322° |
| 2026-05-09 07:13 | -26.59854 | 153.08537 | 19 ft | 37 kts | 322° |
| 2026-05-09 07:14 | -26.59623 | 153.08343 | 19 ft | 43 kts | 323° |
| 2026-05-09 07:14 | -26.59454 | 153.08198 | 19 ft | 20 kts | 336° |
| 2026-05-09 07:14 | -26.59381 | 153.08237 | 18 ft | 0 kts | 52° |
| 2026-05-09 07:15 | -26.59378 | 153.08241 | 18 ft | 4 kts | 52° |
| 2026-05-09 07:15 | -26.59329 | 153.08312 | 17 ft | 7 kts | 58° |
| 2026-05-09 07:15 | -26.59417 | 153.08401 | 17 ft | 39 kts | 140° |
| 2026-05-09 07:16 | -26.59734 | 153.08684 | 54 ft | 71 kts | 141° |
| 2026-05-09 07:16 | -26.60126 | 153.09045 | 269 ft | 72 kts | 142° |
| 2026-05-09 07:16 | -26.60540 | 153.09310 | 543 ft | 71 kts | 175° |
| 2026-05-09 07:16 | -26.60969 | 153.09053 | 767 ft | 77 kts | 227° |
| 2026-05-09 07:17 | -26.61033 | 153.08418 | 930 ft | 94 kts | 279° |
| 2026-05-09 07:17 | -26.60639 | 153.07702 | 893 ft | 116 kts | 315° |
| 2026-05-09 07:17 | -26.60022 | 153.07110 | 942 ft | 120 kts | 321° |
| 2026-05-09 07:17 | -26.59340 | 153.06564 | 930 ft | 122 kts | 324° |
| 2026-05-09 07:18 | -26.58646 | 153.06034 | 1011 ft | 120 kts | 325° |
| 2026-05-09 07:18 | -26.57955 | 153.05506 | 1010 ft | 123 kts | 323° |
| 2026-05-09 07:18 | -26.57266 | 153.04958 | 966 ft | 125 kts | 323° |
| 2026-05-09 07:18 | -26.56571 | 153.04403 | 981 ft | 120 kts | 333° |
| 2026-05-09 07:19 | -26.55809 | 153.04460 | 858 ft | 113 kts | 41° |
| 2026-05-09 07:19 | -26.55590 | 153.05191 | 682 ft | 101 kts | 116° |
| 2026-05-09 07:19 | -26.56112 | 153.05668 | 496 ft | 95 kts | 155° |
| 2026-05-09 07:19 | -26.56650 | 153.06053 | 358 ft | 93 kts | 139° |
| 2026-05-09 07:20 | -26.57166 | 153.06493 | 278 ft | 92 kts | 144° |
| 2026-05-09 07:20 | -26.57677 | 153.06925 | 221 ft | 87 kts | 146° |
| 2026-05-09 07:20 | -26.58144 | 153.07324 | 132 ft | 85 kts | 144° |
| 2026-05-09 07:20 | -26.58564 | 153.07680 | 43 ft | 60 kts | 147° |
| 2026-05-09 07:21 | -26.58821 | 153.07891 | 20 ft | 35 kts | 154° |
| 2026-05-09 07:21 | -26.59117 | 153.08138 | 23 ft | 72 kts | 144° |
| 2026-05-09 07:21 | -26.59558 | 153.08536 | 49 ft | 93 kts | 144° |
| 2026-05-09 07:21 | -26.60138 | 153.08981 | 54 ft | 106 kts | 154° |
| 2026-05-09 07:22 | -26.60789 | 153.09235 | 325 ft | 86 kts | 182° |
| 2026-05-09 07:22 | -26.61234 | 153.08918 | 683 ft | 81 kts | 229° |
| 2026-05-09 07:22 | -26.61280 | 153.08245 | 834 ft | 96 kts | 287° |
| 2026-05-09 07:22 | -26.60775 | 153.07738 | 986 ft | 105 kts | 345° |
| 2026-05-09 07:23 | -26.60126 | 153.07315 | 1006 ft | 115 kts | 317° |
| 2026-05-09 07:23 | -26.59581 | 153.06744 | 975 ft | 104 kts | 316° |
| 2026-05-09 07:23 | -26.59060 | 153.06212 | 1008 ft | 98 kts | 313° |
| 2026-05-09 07:23 | -26.58511 | 153.06005 | 960 ft | 83 kts | 17° |
| 2026-05-09 07:24 | -26.58120 | 153.06451 | 610 ft | 89 kts | 75° |
| 2026-05-09 07:24 | -26.58016 | 153.07055 | 414 ft | 71 kts | 112° |
| 2026-05-09 07:24 | -26.58321 | 153.07467 | 152 ft | 65 kts | 146° |
| 2026-05-09 07:24 | -26.58633 | 153.07739 | 28 ft | 48 kts | 148° |
| 2026-05-09 07:25 | -26.58866 | 153.07923 | 19 ft | 51 kts | 143° |
| 2026-05-09 07:25 | -26.59228 | 153.08241 | 103 ft | 74 kts | 142° |
| 2026-05-09 07:25 | -26.59633 | 153.08623 | 290 ft | 77 kts | 143° |
| 2026-05-09 07:25 | -26.60029 | 153.09016 | 552 ft | 72 kts | 140° |
| 2026-05-09 07:26 | -26.60390 | 153.09332 | 862 ft | 67 kts | 153° |
| 2026-05-09 07:26 | -26.60859 | 153.09553 | 1012 ft | 73 kts | 156° |
| 2026-05-09 07:26 | -26.61323 | 153.09757 | 1235 ft | 67 kts | 156° |
| 2026-05-09 07:26 | -26.61705 | 153.09870 | 1502 ft | 59 kts | 159° |
| 2026-05-09 07:27 | -26.62124 | 153.09980 | 1696 ft | 62 kts | 161° |
| 2026-05-09 07:27 | -26.62546 | 153.10059 | 1879 ft | 59 kts | 164° |
| 2026-05-09 07:27 | -26.62965 | 153.10115 | 2046 ft | 61 kts | 168° |
| 2026-05-09 07:27 | -26.63396 | 153.10146 | 2177 ft | 66 kts | 168° |
| 2026-05-09 07:28 | -26.63871 | 153.10182 | 2324 ft | 70 kts | 168° |
| 2026-05-09 07:28 | -26.64374 | 153.10247 | 2480 ft | 74 kts | 166° |
| 2026-05-09 07:28 | -26.64896 | 153.10323 | 2659 ft | 75 kts | 167° |
| 2026-05-09 07:28 | -26.65405 | 153.10351 | 2860 ft | 73 kts | 169° |
| 2026-05-09 07:29 | -26.65922 | 153.10377 | 3017 ft | 76 kts | 170° |
| 2026-05-09 07:29 | -26.66356 | 153.10623 | 3203 ft | 72 kts | 120° |
| 2026-05-09 07:29 | -26.66751 | 153.10916 | 3381 ft | 69 kts | 158° |
| 2026-05-09 07:29 | -26.67182 | 153.11120 | 3569 ft | 65 kts | 153° |
| 2026-05-09 07:30 | -26.67457 | 153.11254 | 3689 ft | 62 kts | 150° |
| 2026-05-09 07:30 | -26.67821 | 153.11439 | 3866 ft | 55 kts | 150° |
| 2026-05-09 07:30 | -26.68287 | 153.11675 | 3859 ft | 51 kts | 152° |
| 2026-05-09 07:30 | -26.68497 | 153.11788 | 3852 ft | 50 kts | 146° |
| 2026-05-09 07:31 | -26.68852 | 153.11977 | 3895 ft | 65 kts | 151° |
| 2026-05-09 07:31 | -26.69298 | 153.12225 | 3859 ft | 76 kts | 152° |
| 2026-05-09 07:31 | -26.69812 | 153.12488 | 3770 ft | 85 kts | 153° |
| 2026-05-09 07:31 | -26.70373 | 153.12784 | 3671 ft | 92 kts | 152° |
| 2026-05-09 07:32 | -26.70963 | 153.13099 | 3569 ft | 95 kts | 152° |
| 2026-05-09 07:32 | -26.71559 | 153.13419 | 3538 ft | 93 kts | 153° |
| 2026-05-09 07:32 | -26.72123 | 153.13723 | 3533 ft | 87 kts | 152° |
| 2026-05-09 07:32 | -26.72662 | 153.14017 | 3533 ft | 89 kts | 151° |
| 2026-05-09 07:33 | -26.73246 | 153.14335 | 3536 ft | 97 kts | 152° |
| 2026-05-09 07:33 | -26.74501 | 153.15016 | 3536 ft | 102 kts | 151° |
| 2026-05-09 07:33 | -26.75149 | 153.15366 | 3535 ft | 104 kts | 152° |
| 2026-05-09 07:34 | -26.75802 | 153.15721 | 3530 ft | 104 kts | 152° |
| 2026-05-09 07:34 | -26.76456 | 153.16076 | 3534 ft | 105 kts | 152° |
| 2026-05-09 07:34 | -26.77117 | 153.16435 | 3529 ft | 105 kts | 152° |
| 2026-05-09 07:34 | -26.77777 | 153.16794 | 3531 ft | 105 kts | 152° |
| 2026-05-09 07:35 | -26.78439 | 153.17153 | 3532 ft | 106 kts | 151° |
| 2026-05-09 07:35 | -26.79099 | 153.17512 | 3532 ft | 108 kts | 152° |
| 2026-05-09 07:35 | -26.79781 | 153.17883 | 3531 ft | 109 kts | 152° |
| 2026-05-09 07:35 | -26.80463 | 153.18254 | 3536 ft | 109 kts | 151° |
| 2026-05-09 07:36 | -26.81142 | 153.18623 | 3534 ft | 108 kts | 153° |
| 2026-05-09 07:36 | -26.81818 | 153.18990 | 3531 ft | 107 kts | 152° |
| 2026-05-09 07:36 | -26.82488 | 153.19355 | 3531 ft | 107 kts | 151° |
| 2026-05-09 07:36 | -26.83151 | 153.19716 | 3528 ft | 106 kts | 153° |
| 2026-05-09 07:37 | -26.83812 | 153.20076 | 3532 ft | 106 kts | 152° |
| 2026-05-09 07:37 | -26.84478 | 153.20438 | 3528 ft | 106 kts | 152° |
| 2026-05-09 07:37 | -26.85141 | 153.20799 | 3530 ft | 106 kts | 153° |
| 2026-05-09 07:37 | -26.85805 | 153.21160 | 3529 ft | 106 kts | 153° |
| 2026-05-09 07:38 | -26.86472 | 153.21523 | 3532 ft | 107 kts | 153° |
| 2026-05-09 07:38 | -26.87145 | 153.21889 | 3532 ft | 107 kts | 152° |
| 2026-05-09 07:38 | -26.87814 | 153.22254 | 3528 ft | 106 kts | 153° |
| 2026-05-09 07:38 | -26.88475 | 153.22615 | 3527 ft | 106 kts | 153° |
| 2026-05-09 07:39 | -26.89133 | 153.22972 | 3529 ft | 106 kts | 153° |
| 2026-05-09 07:39 | -26.89799 | 153.23335 | 3525 ft | 106 kts | 153° |
| 2026-05-09 07:39 | -26.90456 | 153.23694 | 3529 ft | 105 kts | 152° |
| 2026-05-09 07:39 | -26.91114 | 153.24052 | 3524 ft | 105 kts | 153° |
| 2026-05-09 07:40 | -26.91775 | 153.24412 | 3527 ft | 106 kts | 153° |
| 2026-05-09 07:40 | -26.92439 | 153.24774 | 3524 ft | 106 kts | 153° |
| 2026-05-09 07:40 | -26.93110 | 153.25140 | 3533 ft | 107 kts | 153° |
| 2026-05-09 07:40 | -26.93784 | 153.25506 | 3531 ft | 108 kts | 153° |
| 2026-05-09 07:41 | -26.94455 | 153.25872 | 3531 ft | 107 kts | 153° |
| 2026-05-09 07:41 | -26.95122 | 153.26236 | 3534 ft | 107 kts | 152° |
| 2026-05-09 07:41 | -26.95785 | 153.26598 | 3527 ft | 107 kts | 153° |
| 2026-05-09 07:41 | -26.96457 | 153.26964 | 3531 ft | 106 kts | 152° |
| 2026-05-09 07:42 | -26.97121 | 153.27327 | 3528 ft | 105 kts | 152° |
| 2026-05-09 07:42 | -26.97776 | 153.27684 | 3528 ft | 106 kts | 153° |
| 2026-05-09 07:42 | -26.98449 | 153.28051 | 3530 ft | 107 kts | 152° |
| 2026-05-09 07:42 | -26.99117 | 153.28416 | 3529 ft | 108 kts | 153° |
| 2026-05-09 07:43 | -26.99782 | 153.28779 | 3527 ft | 107 kts | 153° |
| 2026-05-09 07:43 | -27.00451 | 153.29144 | 3533 ft | 107 kts | 153° |
| 2026-05-09 07:43 | -27.01121 | 153.29510 | 3529 ft | 107 kts | 153° |
| 2026-05-09 07:43 | -27.01792 | 153.29876 | 3534 ft | 107 kts | 153° |
| 2026-05-09 07:44 | -27.02460 | 153.30241 | 3533 ft | 107 kts | 153° |
| 2026-05-09 07:44 | -27.03128 | 153.30606 | 3529 ft | 107 kts | 153° |
| 2026-05-09 07:44 | -27.03794 | 153.30970 | 3525 ft | 106 kts | 153° |
| 2026-05-09 07:44 | -27.04433 | 153.31319 | 3530 ft | 106 kts | 153° |
| 2026-05-09 07:45 | -27.05099 | 153.31683 | 3528 ft | 107 kts | 153° |
| 2026-05-09 07:45 | -27.05763 | 153.32046 | 3528 ft | 106 kts | 153° |
| 2026-05-09 07:45 | -27.06419 | 153.32404 | 3526 ft | 106 kts | 153° |
| 2026-05-09 07:45 | -27.07082 | 153.32767 | 3525 ft | 105 kts | 154° |
| 2026-05-09 07:46 | -27.07742 | 153.33128 | 3527 ft | 106 kts | 153° |
| 2026-05-09 07:46 | -27.08408 | 153.33492 | 3523 ft | 106 kts | 153° |
| 2026-05-09 07:46 | -27.09063 | 153.33850 | 3523 ft | 104 kts | 153° |
| 2026-05-09 07:46 | -27.09711 | 153.34205 | 3525 ft | 104 kts | 153° |
| 2026-05-09 07:47 | -27.10367 | 153.34563 | 3522 ft | 105 kts | 153° |
| 2026-05-09 07:47 | -27.11021 | 153.34921 | 3522 ft | 104 kts | 153° |
| 2026-05-09 07:47 | -27.11672 | 153.35277 | 3524 ft | 105 kts | 153° |
| 2026-05-09 07:47 | -27.12334 | 153.35640 | 3529 ft | 107 kts | 153° |
| 2026-05-09 07:48 | -27.13007 | 153.36008 | 3527 ft | 107 kts | 153° |
| 2026-05-09 07:48 | -27.13665 | 153.36368 | 3529 ft | 106 kts | 152° |
| 2026-05-09 07:48 | -27.14334 | 153.36734 | 3527 ft | 108 kts | 153° |
| 2026-05-09 07:48 | -27.15009 | 153.37103 | 3530 ft | 108 kts | 152° |
| 2026-05-09 07:49 | -27.15680 | 153.37471 | 3529 ft | 107 kts | 152° |
| 2026-05-09 07:49 | -27.16346 | 153.37836 | 3527 ft | 107 kts | 153° |
| 2026-05-09 07:49 | -27.17047 | 153.38082 | 3520 ft | 108 kts | 175° |
| 2026-05-09 07:49 | -27.17803 | 153.38056 | 3523 ft | 110 kts | 177° |
| 2026-05-09 07:50 | -27.18567 | 153.38053 | 3523 ft | 109 kts | 177° |
| 2026-05-09 07:50 | -27.19331 | 153.38053 | 3527 ft | 110 kts | 176° |
| 2026-05-09 07:50 | -27.20094 | 153.38055 | 3526 ft | 109 kts | 177° |
| 2026-05-09 07:50 | -27.20848 | 153.38058 | 3525 ft | 108 kts | 177° |
| 2026-05-09 07:51 | -27.21597 | 153.38063 | 3521 ft | 106 kts | 176° |
| 2026-05-09 07:51 | -27.22323 | 153.38068 | 3530 ft | 106 kts | 177° |
| 2026-05-09 07:51 | -27.23061 | 153.38072 | 3522 ft | 105 kts | 177° |
| 2026-05-09 07:51 | -27.23799 | 153.38076 | 3520 ft | 106 kts | 175° |
| 2026-05-09 07:52 | -27.24537 | 153.38081 | 3523 ft | 106 kts | 176° |
| 2026-05-09 07:52 | -27.25273 | 153.38085 | 3520 ft | 105 kts | 176° |
| 2026-05-09 07:52 | -27.26004 | 153.38090 | 3521 ft | 105 kts | 176° |
| 2026-05-09 07:52 | -27.26744 | 153.38094 | 3522 ft | 107 kts | 176° |
| 2026-05-09 07:53 | -27.27491 | 153.38098 | 3525 ft | 106 kts | 176° |
| 2026-05-09 07:53 | -27.28211 | 153.38102 | 3524 ft | 102 kts | 176° |
| 2026-05-09 07:53 | -27.28911 | 153.38106 | 3520 ft | 98 kts | 176° |
| 2026-05-09 07:53 | -27.29589 | 153.38110 | 3521 ft | 96 kts | 176° |
| 2026-05-09 07:54 | -27.30256 | 153.38114 | 3521 ft | 96 kts | 175° |
| 2026-05-09 07:54 | -27.30920 | 153.38119 | 3526 ft | 94 kts | 175° |
| 2026-05-09 07:54 | -27.31576 | 153.38123 | 3524 ft | 94 kts | 175° |
| 2026-05-09 07:54 | -27.32222 | 153.38127 | 3524 ft | 92 kts | 175° |
| 2026-05-09 07:55 | -27.32854 | 153.38131 | 3525 ft | 93 kts | 175° |
| 2026-05-09 07:55 | -27.33522 | 153.38137 | 3527 ft | 98 kts | 176° |
| 2026-05-09 07:55 | -27.34218 | 153.38141 | 3536 ft | 102 kts | 176° |
| 2026-05-09 07:55 | -27.34931 | 153.38145 | 3536 ft | 103 kts | 176° |
| 2026-05-09 07:56 | -27.35655 | 153.38149 | 3540 ft | 103 kts | 176° |
| 2026-05-09 07:56 | -27.36383 | 153.38153 | 3534 ft | 105 kts | 176° |
| 2026-05-09 07:56 | -27.37113 | 153.38158 | 3542 ft | 105 kts | 176° |
| 2026-05-09 07:56 | -27.37841 | 153.38161 | 3540 ft | 106 kts | 176° |
| 2026-05-09 07:57 | -27.38584 | 153.38166 | 3539 ft | 107 kts | 177° |
| 2026-05-09 07:57 | -27.39326 | 153.38170 | 3539 ft | 106 kts | 176° |
| 2026-05-09 07:57 | -27.40062 | 153.38174 | 3532 ft | 106 kts | 177° |
| 2026-05-09 07:57 | -27.40800 | 153.38179 | 3539 ft | 106 kts | 176° |
| 2026-05-09 07:58 | -27.41542 | 153.38184 | 3537 ft | 107 kts | 176° |
| 2026-05-09 07:58 | -27.42289 | 153.38188 | 3534 ft | 107 kts | 176° |
| 2026-05-09 07:58 | -27.43029 | 153.38193 | 3537 ft | 107 kts | 176° |
| 2026-05-09 07:58 | -27.43774 | 153.38198 | 3535 ft | 107 kts | 176° |
| 2026-05-09 07:59 | -27.44520 | 153.38202 | 3536 ft | 107 kts | 176° |
| 2026-05-09 07:59 | -27.45274 | 153.38206 | 3539 ft | 108 kts | 176° |
| 2026-05-09 07:59 | -27.46017 | 153.38211 | 3536 ft | 108 kts | 176° |
| 2026-05-09 07:59 | -27.46771 | 153.38216 | 3535 ft | 107 kts | 178° |
| 2026-05-09 08:00 | -27.47521 | 153.38220 | 3541 ft | 107 kts | 177° |
| 2026-05-09 08:00 | -27.48275 | 153.38224 | 3539 ft | 108 kts | 177° |
| 2026-05-09 08:00 | -27.49021 | 153.38229 | 3538 ft | 108 kts | 176° |
| 2026-05-09 08:00 | -27.49774 | 153.38234 | 3539 ft | 107 kts | 177° |
| 2026-05-09 08:01 | -27.50512 | 153.38238 | 3534 ft | 106 kts | 177° |
| 2026-05-09 08:01 | -27.51252 | 153.38243 | 3536 ft | 106 kts | 177° |
| 2026-05-09 08:01 | -27.51991 | 153.38247 | 3535 ft | 105 kts | 176° |
| 2026-05-09 08:01 | -27.52700 | 153.38251 | 3527 ft | 98 kts | 177° |
| 2026-05-09 08:02 | -27.53373 | 153.38255 | 3523 ft | 95 kts | 176° |
| 2026-05-09 08:02 | -27.54046 | 153.38260 | 3425 ft | 100 kts | 176° |
| 2026-05-09 08:02 | -27.54761 | 153.38264 | 3308 ft | 105 kts | 176° |
| 2026-05-09 08:02 | -27.55505 | 153.38268 | 3185 ft | 109 kts | 176° |
| 2026-05-09 08:03 | -27.56257 | 153.38272 | 3068 ft | 110 kts | 177° |
| 2026-05-09 08:03 | -27.57030 | 153.38276 | 2948 ft | 111 kts | 176° |
| 2026-05-09 08:03 | -27.57796 | 153.38281 | 2822 ft | 111 kts | 177° |
| 2026-05-09 08:03 | -27.58569 | 153.38285 | 2697 ft | 111 kts | 176° |
| 2026-05-09 08:04 | -27.59344 | 153.38290 | 2576 ft | 112 kts | 177° |
| 2026-05-09 08:04 | -27.60127 | 153.38294 | 2448 ft | 112 kts | 176° |
| 2026-05-09 08:04 | -27.60912 | 153.38300 | 2328 ft | 113 kts | 177° |
| 2026-05-09 08:04 | -27.61692 | 153.38304 | 2202 ft | 112 kts | 176° |
| 2026-05-09 08:05 | -27.62469 | 153.38309 | 2076 ft | 111 kts | 177° |
| 2026-05-09 08:05 | -27.63244 | 153.38314 | 1952 ft | 112 kts | 176° |
| 2026-05-09 08:05 | -27.64013 | 153.38318 | 1833 ft | 112 kts | 178° |
| 2026-05-09 08:05 | -27.64790 | 153.38323 | 1702 ft | 111 kts | 176° |
| 2026-05-09 08:06 | -27.65564 | 153.38328 | 1583 ft | 111 kts | 178° |
| 2026-05-09 08:06 | -27.66325 | 153.38332 | 1538 ft | 106 kts | 176° |
| 2026-05-09 08:06 | -27.67029 | 153.38394 | 1536 ft | 98 kts | 169° |
| 2026-05-09 08:06 | -27.67697 | 153.38499 | 1529 ft | 95 kts | 169° |
| 2026-05-09 08:07 | -27.68348 | 153.38598 | 1534 ft | 94 kts | 170° |
| 2026-05-09 08:07 | -27.68994 | 153.38695 | 1537 ft | 92 kts | 170° |
| 2026-05-09 08:07 | -27.69615 | 153.38792 | 1538 ft | 90 kts | 169° |
| 2026-05-09 08:07 | -27.70239 | 153.38887 | 1537 ft | 91 kts | 169° |
| 2026-05-09 08:08 | -27.70874 | 153.38985 | 1536 ft | 93 kts | 169° |
| 2026-05-09 08:08 | -27.71525 | 153.39086 | 1536 ft | 94 kts | 169° |
| 2026-05-09 08:08 | -27.72183 | 153.39187 | 1534 ft | 96 kts | 169° |
| 2026-05-09 08:08 | -27.72838 | 153.39287 | 1537 ft | 93 kts | 170° |
| 2026-05-09 08:09 | -27.73471 | 153.39385 | 1539 ft | 93 kts | 168° |
| 2026-05-09 08:09 | -27.74114 | 153.39484 | 1534 ft | 93 kts | 169° |
| 2026-05-09 08:09 | -27.74752 | 153.39582 | 1536 ft | 92 kts | 169° |
| 2026-05-09 08:09 | -27.75382 | 153.39680 | 1537 ft | 91 kts | 170° |
| 2026-05-09 08:10 | -27.76009 | 153.39776 | 1540 ft | 91 kts | 170° |
| 2026-05-09 08:10 | -27.76634 | 153.39872 | 1535 ft | 91 kts | 169° |
| 2026-05-09 08:10 | -27.77259 | 153.39969 | 1534 ft | 90 kts | 169° |
| 2026-05-09 08:10 | -27.77871 | 153.40064 | 1533 ft | 88 kts | 170° |
| 2026-05-09 08:11 | -27.78476 | 153.40157 | 1525 ft | 87 kts | 170° |
| 2026-05-09 08:11 | -27.79074 | 153.40250 | 1541 ft | 86 kts | 171° |
| 2026-05-09 08:11 | -27.79662 | 153.40340 | 1533 ft | 85 kts | 171° |
| 2026-05-09 08:11 | -27.80240 | 153.40430 | 1536 ft | 82 kts | 171° |
| 2026-05-09 08:12 | -27.81391 | 153.40608 | 1540 ft | 85 kts | 170° |
| 2026-05-09 08:12 | -27.81987 | 153.40700 | 1507 ft | 91 kts | 170° |
| 2026-05-09 08:12 | -27.82610 | 153.40796 | 1508 ft | 89 kts | 171° |
| 2026-05-09 08:13 | -27.83234 | 153.40892 | 1509 ft | 92 kts | 170° |
| 2026-05-09 08:13 | -27.83867 | 153.40989 | 1507 ft | 90 kts | 170° |
| 2026-05-09 08:13 | -27.84479 | 153.41084 | 1506 ft | 91 kts | 171° |
| 2026-05-09 08:13 | -27.85116 | 153.41182 | 1506 ft | 93 kts | 170° |
| 2026-05-09 08:14 | -27.85745 | 153.41279 | 1506 ft | 91 kts | 171° |
| 2026-05-09 08:14 | -27.86375 | 153.41377 | 1506 ft | 92 kts | 172° |
| 2026-05-09 08:14 | -27.87013 | 153.41475 | 1505 ft | 92 kts | 172° |
| 2026-05-09 08:14 | -27.87648 | 153.41573 | 1508 ft | 92 kts | 171° |
| 2026-05-09 08:15 | -27.88275 | 153.41670 | 1501 ft | 91 kts | 170° |
| 2026-05-09 08:15 | -27.88901 | 153.41768 | 1506 ft | 92 kts | 171° |
| 2026-05-09 08:15 | -27.89537 | 153.41865 | 1505 ft | 91 kts | 170° |
| 2026-05-09 08:15 | -27.90162 | 153.41962 | 1505 ft | 90 kts | 171° |
| 2026-05-09 08:16 | -27.90777 | 153.42057 | 1502 ft | 88 kts | 172° |
| 2026-05-09 08:16 | -27.91379 | 153.42150 | 1500 ft | 86 kts | 170° |
| 2026-05-09 08:16 | -27.91764 | 153.42210 | 1495 ft | 82 kts | 171° |
| 2026-05-09 08:16 | -27.92317 | 153.42301 | 1467 ft | 83 kts | 169° |
| 2026-05-09 08:17 | -27.92867 | 153.42465 | 1423 ft | 83 kts | 147° |
| 2026-05-09 08:17 | -27.93026 | 153.43086 | 1340 ft | 93 kts | 75° |
| 2026-05-09 08:17 | -27.92294 | 153.43209 | 1383 ft | 91 kts | 320° |
| 2026-05-09 08:17 | -27.91909 | 153.43097 | 1393 ft | 83 kts | 17° |
| 2026-05-09 08:18 | -27.91182 | 153.43209 | 1443 ft | 80 kts | 9° |
| 2026-05-09 08:18 | -27.90813 | 153.43258 | 1476 ft | 81 kts | 8° |
| 2026-05-09 08:18 | -27.90245 | 153.43326 | 1508 ft | 86 kts | 10° |
| 2026-05-09 08:18 | -27.89617 | 153.43389 | 1518 ft | 95 kts | 1° |
| 2026-05-09 08:19 | -27.89160 | 153.42921 | 1512 ft | 96 kts | 267° |
| 2026-05-09 08:19 | -27.89541 | 153.42433 | 1518 ft | 87 kts | 188° |
| 2026-05-09 08:19 | -27.90132 | 153.42255 | 1514 ft | 89 kts | 192° |
| 2026-05-09 08:19 | -27.90728 | 153.42076 | 1515 ft | 88 kts | 192° |
| 2026-05-09 08:20 | -27.91322 | 153.41912 | 1508 ft | 87 kts | 189° |
| 2026-05-09 08:20 | -27.91901 | 153.41743 | 1518 ft | 84 kts | 191° |
| 2026-05-09 08:20 | -27.92470 | 153.41580 | 1511 ft | 83 kts | 190° |
| 2026-05-09 08:20 | -27.92881 | 153.41865 | 1506 ft | 82 kts | 99° |
| 2026-05-09 08:21 | -27.92477 | 153.42286 | 1511 ft | 91 kts | 7° |
| 2026-05-09 08:21 | -27.91837 | 153.42383 | 1504 ft | 94 kts | 11° |
| 2026-05-09 08:21 | -27.91204 | 153.42484 | 1508 ft | 93 kts | 10° |
| 2026-05-09 08:21 | -27.90560 | 153.42595 | 1509 ft | 94 kts | 10° |
| 2026-05-09 08:22 | -27.89908 | 153.42694 | 1515 ft | 96 kts | 11° |
| 2026-05-09 08:22 | -27.89234 | 153.42789 | 1515 ft | 99 kts | 11° |
| 2026-05-09 08:22 | -27.88556 | 153.42895 | 1508 ft | 99 kts | 11° |
| 2026-05-09 08:22 | -27.87862 | 153.43002 | 1513 ft | 101 kts | 10° |
| 2026-05-09 08:23 | -27.87156 | 153.43121 | 1512 ft | 103 kts | 11° |
| 2026-05-09 08:23 | -27.86470 | 153.43052 | 1496 ft | 104 kts | 319° |
| 2026-05-09 08:23 | -27.86367 | 153.42381 | 1493 ft | 86 kts | 224° |
| 2026-05-09 08:23 | -27.86885 | 153.42160 | 1507 ft | 81 kts | 192° |
| 2026-05-09 08:24 | -27.87433 | 153.41998 | 1512 ft | 82 kts | 191° |
| 2026-05-09 08:24 | -27.87996 | 153.41826 | 1515 ft | 84 kts | 191° |
| 2026-05-09 08:24 | -27.88563 | 153.41650 | 1506 ft | 84 kts | 191° |
| 2026-05-09 08:24 | -27.89127 | 153.41683 | 1509 ft | 82 kts | 165° |
| 2026-05-09 08:25 | -27.89691 | 153.41804 | 1513 ft | 82 kts | 167° |
| 2026-05-09 08:25 | -27.90254 | 153.41914 | 1512 ft | 82 kts | 169° |
| 2026-05-09 08:25 | -27.90809 | 153.42016 | 1507 ft | 81 kts | 170° |
| 2026-05-09 08:25 | -27.91418 | 153.42126 | 1510 ft | 95 kts | 170° |
| 2026-05-09 08:26 | -27.92094 | 153.42241 | 1521 ft | 103 kts | 170° |
| 2026-05-09 08:26 | -27.92838 | 153.42366 | 1511 ft | 110 kts | 171° |
| 2026-05-09 08:26 | -27.93580 | 153.42489 | 1519 ft | 110 kts | 171° |
| 2026-05-09 08:26 | -27.94354 | 153.42535 | 1514 ft | 111 kts | 174° |
| 2026-05-09 08:27 | -27.95133 | 153.42600 | 1515 ft | 113 kts | 174° |
| 2026-05-09 08:27 | -27.95909 | 153.42660 | 1516 ft | 111 kts | 175° |
| 2026-05-09 08:27 | -27.96691 | 153.42718 | 1512 ft | 113 kts | 175° |
| 2026-05-09 08:27 | -27.97476 | 153.42774 | 1517 ft | 113 kts | 176° |
| 2026-05-09 08:28 | -27.98268 | 153.42831 | 1519 ft | 115 kts | 175° |
| 2026-05-09 08:28 | -27.99074 | 153.42889 | 1517 ft | 116 kts | 175° |
| 2026-05-09 08:28 | -27.99881 | 153.42965 | 1523 ft | 117 kts | 173° |
| 2026-05-09 08:28 | -28.00681 | 153.43048 | 1517 ft | 116 kts | 173° |
| 2026-05-09 08:29 | -28.01485 | 153.43133 | 1517 ft | 116 kts | 174° |
| 2026-05-09 08:29 | -28.02280 | 153.43265 | 1517 ft | 115 kts | 161° |
| 2026-05-09 08:29 | -28.03014 | 153.43575 | 1528 ft | 110 kts | 159° |
| 2026-05-09 08:29 | -28.03717 | 153.43893 | 1524 ft | 106 kts | 158° |
| 2026-05-09 08:30 | -28.04393 | 153.44199 | 1503 ft | 108 kts | 159° |
| 2026-05-09 08:30 | -28.05129 | 153.44505 | 1465 ft | 114 kts | 161° |
| 2026-05-09 08:30 | -28.05866 | 153.44816 | 1481 ft | 112 kts | 159° |
| 2026-05-09 08:30 | -28.06589 | 153.45153 | 1465 ft | 114 kts | 158° |
| 2026-05-09 08:31 | -28.07333 | 153.45468 | 1460 ft | 113 kts | 159° |
| 2026-05-09 08:31 | -28.08043 | 153.45778 | 1444 ft | 111 kts | 159° |
| 2026-05-09 08:31 | -28.08786 | 153.46059 | 1366 ft | 113 kts | 167° |
| 2026-05-09 08:31 | -28.09521 | 153.46294 | 1334 ft | 110 kts | 164° |
| 2026-05-09 08:32 | -28.10249 | 153.46628 | 1251 ft | 115 kts | 154° |
| 2026-05-09 08:32 | -28.10918 | 153.47088 | 1181 ft | 110 kts | 151° |
| 2026-05-09 08:32 | -28.12282 | 153.47937 | 831 ft | 110 kts | 150° |
| 2026-05-09 08:33 | -28.12940 | 153.48341 | 663 ft | 103 kts | 154° |
| 2026-05-09 08:33 | -28.13545 | 153.48726 | 518 ft | 98 kts | 153° |
| 2026-05-09 08:33 | -28.14122 | 153.49097 | 431 ft | 95 kts | 154° |
| 2026-05-09 08:33 | -28.14674 | 153.49457 | 352 ft | 86 kts | 155° |
| 2026-05-09 08:34 | -28.15165 | 153.49766 | 218 ft | 74 kts | 153° |
| 2026-05-09 08:34 | -28.15570 | 153.50021 | 99 ft | 61 kts | 153° |
| 2026-05-09 08:34 | -28.15900 | 153.50234 | 27 ft | 43 kts | 155° |
| 2026-05-09 08:34 | -28.16119 | 153.50365 | 21 ft | 30 kts | 149° |
| 2026-05-09 08:35 | -28.16305 | 153.50489 | 20 ft | 31 kts | 150° |
| 2026-05-09 08:35 | -28.16359 | 153.50573 | 21 ft | 4 kts | 60° |
| 2026-05-09 08:35 | -28.16326 | 153.50628 | 21 ft | 0 kts | 59° |
| 2026-05-09 08:36 | -28.16316 | 153.50650 | 20 ft | 13 kts | 63° |
| 2026-05-09 08:36 | -28.16266 | 153.50782 | 20 ft | 19 kts | 70° |
| 2026-05-09 08:36 | -28.16223 | 153.50910 | 20 ft | 16 kts | 70° |
| 2026-05-09 08:37 | -28.16165 | 153.50943 | 20 ft | 12 kts | 311° |
| 2026-05-09 08:37 | -28.16114 | 153.50876 | 20 ft | 10 kts | 310° |
| 2026-05-09 08:37 | -28.16067 | 153.50822 | 20 ft | 9 kts | 311° |
| 2026-05-09 08:37 | -28.16028 | 153.50777 | 20 ft | 7 kts | 314° |
| 2026-05-09 08:38 | -28.15992 | 153.50735 | 20 ft | 8 kts | 314° |
| 2026-05-09 08:38 | -28.15949 | 153.50688 | 20 ft | 8 kts | 4° |
| 2026-05-09 08:38 | -28.15940 | 153.50704 | 20 ft | 0 kts | 127° |
| 2026-05-09 08:38 | -28.15950 | 153.50709 | 20 ft | 0 kts | 179° |